Ruddington, United Kingdom
Current Conditions -  °F | °C
As of 1:20 AM on Monday 22 Dec 2014 (Local Time) from EGNX Reporting Station
Broken Clouds Broken Clouds  
Wind Chill: 12°   Ceiling: 1900
Heat Index: 12°   Visibility: 6mi
Dew Point: 10°   Wind: 16mph
Humidity: 88%   Direction: 230°SW
Pressure: 29.94"   Gusts: NA
Location:  52.89°N, 1.15°W
Report Text: EGNX 220120Z 23014KT 9999 BKN019 12/10 Q1014
Loading
Personal Weather Stations






























Interactive Weather Map New forecast layout! Learn more

10-Day Weather Forecast

Advertisements
Track Severe Weather on mobile